createdAt,value
2018-05-11T00:00:00.166Z,25.60
2018-05-11T00:01:00.183Z,24.80
2018-05-11T00:02:00.170Z,24.00
2018-05-11T00:03:00.188Z,25.30
2018-05-11T00:04:00.171Z,26.10
2018-05-11T00:05:00.182Z,25.60
2018-05-11T00:06:00.185Z,26.70
2018-05-11T00:07:00.200Z,26.10
2018-05-11T00:08:00.168Z,25.90
2018-05-11T00:09:00.181Z,26.10
2018-05-11T00:10:00.177Z,25.50
2018-05-11T00:11:00.173Z,26.00
2018-05-11T00:12:00.185Z,25.80
2018-05-11T00:13:00.183Z,26.60
2018-05-11T00:14:00.191Z,26.60
2018-05-11T00:15:00.197Z,27.00
2018-05-11T00:16:00.189Z,28.60
2018-05-11T00:17:00.211Z,27.80
2018-05-11T00:18:00.200Z,28.30
2018-05-11T00:19:00.315Z,26.90
2018-05-11T00:20:00.234Z,28.00
2018-05-11T00:21:00.229Z,28.10
2018-05-11T00:22:00.216Z,27.40
2018-05-11T00:23:00.202Z,28.40
2018-05-11T00:24:00.235Z,27.50
2018-05-11T00:25:00.203Z,26.80
2018-05-11T00:26:00.214Z,28.50
2018-05-11T00:27:01.114Z,29.30
2018-05-11T00:28:00.285Z,27.90
2018-05-11T00:29:01.049Z,27.20
2018-05-11T00:30:00.219Z,28.50
2018-05-11T00:31:00.294Z,29.50
2018-05-11T00:32:00.217Z,29.50
2018-05-11T00:33:00.232Z,28.60
2018-05-11T00:34:00.230Z,27.50
2018-05-11T00:35:00.230Z,29.70
2018-05-11T00:36:00.237Z,31.10
2018-05-11T00:37:00.233Z,28.60
2018-05-11T00:38:00.234Z,28.40
2018-05-11T00:39:00.236Z,29.70
2018-05-11T00:40:00.238Z,30.50
2018-05-11T00:41:00.246Z,29.10
2018-05-11T00:42:00.284Z,28.30
2018-05-11T00:43:00.245Z,29.60
2018-05-11T00:44:00.269Z,30.20
2018-05-11T00:45:00.276Z,30.00
2018-05-11T00:46:00.243Z,28.10
2018-05-11T00:47:00.241Z,29.00
2018-05-11T00:48:00.242Z,28.60
2018-05-11T00:49:00.250Z,30.50
2018-05-11T00:50:00.259Z,31.20
2018-05-11T00:51:00.255Z,29.10
2018-05-11T00:52:00.269Z,29.90
2018-05-11T00:53:00.250Z,30.50
2018-05-11T00:54:00.287Z,29.00
2018-05-11T00:55:00.262Z,30.20
2018-05-11T00:56:00.255Z,30.20
2018-05-11T00:57:00.283Z,30.50
2018-05-11T00:58:00.275Z,29.50
2018-05-11T00:59:00.271Z,30.20
2018-05-11T01:00:00.284Z,32.00
2018-05-11T01:01:00.263Z,29.90
2018-05-11T01:02:00.278Z,30.40
2018-05-11T01:03:00.272Z,29.40
2018-05-11T01:04:00.280Z,29.00
2018-05-11T01:05:00.283Z,29.30
2018-05-11T01:06:00.280Z,30.40
2018-05-11T01:07:00.285Z,29.90
2018-05-11T01:08:00.300Z,30.20
2018-05-11T01:09:00.280Z,32.10
2018-05-11T01:10:01.063Z,30.90
2018-05-11T01:11:00.293Z,31.50
2018-05-11T01:12:00.309Z,33.00
2018-05-11T01:13:00.291Z,32.70
2018-05-11T01:14:00.287Z,34.10
2018-05-11T01:15:00.296Z,33.80
2018-05-11T01:16:00.293Z,32.80
2018-05-11T01:17:00.325Z,32.60
2018-05-11T01:18:00.311Z,33.00
2018-05-11T01:19:00.297Z,34.40
2018-05-11T01:20:01.066Z,35.00
2018-05-11T01:21:00.306Z,35.00
2018-05-11T01:22:00.332Z,35.40
2018-05-11T01:23:00.304Z,30.80
2018-05-11T01:24:00.324Z,32.40
2018-05-11T01:25:00.304Z,31.40
2018-05-11T01:26:00.329Z,35.20
2018-05-11T01:27:00.321Z,35.90
2018-05-11T01:28:00.337Z,34.90
2018-05-11T01:29:00.351Z,36.60
2018-05-11T01:30:00.345Z,36.30
2018-05-11T01:31:01.072Z,36.70
2018-05-11T01:32:00.316Z,34.80
2018-05-11T01:33:00.375Z,35.70
2018-05-11T01:34:00.342Z,35.40
2018-05-11T01:35:00.327Z,35.10
2018-05-11T01:36:00.333Z,34.60
2018-05-11T01:37:00.399Z,36.20
2018-05-11T01:38:00.333Z,36.10
2018-05-11T01:39:00.326Z,34.60
2018-05-11T01:40:00.328Z,35.00
2018-05-11T01:41:00.333Z,34.40
2018-05-11T01:42:00.351Z,36.60
2018-05-11T01:43:00.353Z,35.80
2018-05-11T01:44:00.359Z,35.50
2018-05-11T01:45:00.347Z,35.20
2018-05-11T01:46:00.353Z,36.20
2018-05-11T01:47:00.348Z,34.60
2018-05-11T01:48:00.366Z,33.50
2018-05-11T01:49:00.358Z,34.50
2018-05-11T01:50:00.385Z,36.60
2018-05-11T01:51:00.457Z,37.30
2018-05-11T01:52:00.364Z,35.30
2018-05-11T01:53:00.355Z,37.00
2018-05-11T01:54:00.360Z,35.10
2018-05-11T01:55:00.355Z,36.70
2018-05-11T01:56:00.355Z,38.80
2018-05-11T01:57:00.349Z,38.00
2018-05-11T01:58:00.365Z,35.90
2018-05-11T01:59:00.356Z,36.90
2018-05-11T02:00:00.368Z,35.20
2018-05-11T02:01:00.357Z,36.70
2018-05-11T02:02:00.379Z,35.40
2018-05-11T02:03:00.368Z,34.50
2018-05-11T02:04:00.484Z,35.80
2018-05-11T02:05:00.372Z,36.60
2018-05-11T02:06:00.396Z,34.60
2018-05-11T02:07:00.379Z,33.10
2018-05-11T02:08:00.400Z,36.20
2018-05-11T02:09:00.397Z,36.50
2018-05-11T02:10:00.403Z,36.90
2018-05-11T02:11:00.396Z,36.10
2018-05-11T02:12:00.438Z,37.50
2018-05-11T02:13:00.379Z,34.70
2018-05-11T02:14:00.380Z,36.00
2018-05-11T02:15:00.379Z,35.80
2018-05-11T02:16:00.398Z,36.40
2018-05-11T02:17:00.414Z,36.10
2018-05-11T02:18:00.401Z,36.00
2018-05-11T02:19:00.384Z,34.60
2018-05-11T02:20:00.395Z,36.60
2018-05-11T02:21:00.391Z,35.80
2018-05-11T02:22:00.418Z,34.60
2018-05-11T02:23:00.400Z,36.30
2018-05-11T02:24:00.409Z,37.10
2018-05-11T02:25:00.405Z,36.40
2018-05-11T02:26:00.453Z,35.70
2018-05-11T02:27:00.519Z,34.50
2018-05-11T02:28:00.420Z,36.30
2018-05-11T02:29:00.419Z,36.30
2018-05-11T02:30:00.414Z,37.80
2018-05-11T02:31:00.410Z,35.30
2018-05-11T02:32:00.419Z,38.70
2018-05-11T02:33:00.429Z,39.80
2018-05-11T02:34:00.461Z,36.90
2018-05-11T02:35:00.419Z,39.90
2018-05-11T02:36:00.433Z,39.70
2018-05-11T02:37:00.414Z,39.50
2018-05-11T02:38:00.413Z,36.30
2018-05-11T02:39:00.427Z,35.30
2018-05-11T02:40:00.420Z,38.20
2018-05-11T02:41:00.423Z,39.80
2018-05-11T02:42:00.427Z,38.90
2018-05-11T02:43:00.443Z,37.20
2018-05-11T02:44:00.429Z,39.50
2018-05-11T02:45:00.441Z,37.70
2018-05-11T02:46:00.442Z,38.30
2018-05-11T02:47:00.509Z,39.10
2018-05-11T02:48:00.456Z,39.80
2018-05-11T02:49:00.432Z,37.00
2018-05-11T02:50:00.462Z,39.40
2018-05-11T02:51:00.459Z,36.90
2018-05-11T02:52:00.454Z,39.30
2018-05-11T02:53:00.438Z,40.60
2018-05-11T02:54:00.466Z,38.90
2018-05-11T02:55:00.438Z,39.20
2018-05-11T02:56:00.448Z,37.60
2018-05-11T02:57:00.455Z,37.30
2018-05-11T02:58:00.457Z,35.50
2018-05-11T02:59:00.456Z,34.90
2018-05-11T03:00:00.477Z,34.00
2018-05-11T03:01:00.473Z,36.30
2018-05-11T03:02:00.467Z,38.30
2018-05-11T03:03:00.453Z,37.60
2018-05-11T03:04:00.466Z,36.40
2018-05-11T03:05:00.463Z,34.60
2018-05-11T03:06:00.466Z,40.40
2018-05-11T03:07:00.498Z,37.40
2018-05-11T03:08:00.465Z,41.90
2018-05-11T03:09:00.457Z,35.20
2018-05-11T03:10:00.477Z,39.70
2018-05-11T03:11:01.102Z,42.30
2018-05-11T03:12:00.468Z,43.50
2018-05-11T03:13:00.467Z,40.60
2018-05-11T03:14:00.473Z,42.00
2018-05-11T03:15:00.467Z,39.70
2018-05-11T03:16:00.473Z,38.60
2018-05-11T03:17:00.485Z,39.80
2018-05-11T03:18:00.478Z,38.30
2018-05-11T03:19:00.477Z,38.50
2018-05-11T03:20:00.504Z,39.80
2018-05-11T03:21:00.491Z,38.10
2018-05-11T03:22:00.487Z,35.90
2018-05-11T03:23:00.498Z,36.60
2018-05-11T03:24:00.499Z,35.20
2018-05-11T03:25:00.521Z,38.30
2018-05-11T03:26:00.507Z,38.10
2018-05-11T03:27:00.477Z,37.10
2018-05-11T03:28:00.512Z,35.40
2018-05-11T03:29:00.489Z,33.80
2018-05-11T03:30:00.487Z,34.40
2018-05-11T03:31:00.487Z,33.90
2018-05-11T03:32:00.499Z,38.70
2018-05-11T03:33:00.497Z,40.20
2018-05-11T03:34:00.515Z,40.10
2018-05-11T03:35:00.502Z,37.70
2018-05-11T03:36:00.519Z,37.70
2018-05-11T03:37:00.505Z,39.50
2018-05-11T03:38:00.520Z,38.10
2018-05-11T03:39:00.507Z,38.20
2018-05-11T03:40:00.522Z,38.40
2018-05-11T03:41:00.499Z,38.10
2018-05-11T03:42:00.510Z,38.60
2018-05-11T03:43:00.527Z,38.40
2018-05-11T03:44:00.505Z,38.20
2018-05-11T03:45:00.513Z,36.10
2018-05-11T03:46:00.516Z,36.10
2018-05-11T03:47:00.551Z,36.10
2018-05-11T03:48:00.525Z,37.40
2018-05-11T03:49:00.535Z,37.30
2018-05-11T03:50:00.535Z,35.00
2018-05-11T03:51:00.540Z,38.30
2018-05-11T03:52:00.514Z,38.60
2018-05-11T03:53:00.535Z,38.80
2018-05-11T03:54:00.535Z,42.40
2018-05-11T03:55:00.530Z,40.30
2018-05-11T03:56:00.541Z,41.50
2018-05-11T03:57:00.553Z,45.00
2018-05-11T03:58:00.531Z,44.40
2018-05-11T03:59:00.527Z,45.00
2018-05-11T04:00:00.589Z,45.10
2018-05-11T04:01:00.552Z,43.50
2018-05-11T04:02:00.587Z,41.60
2018-05-11T04:03:00.555Z,41.20
2018-05-11T04:04:00.534Z,36.70
2018-05-11T04:05:00.540Z,38.00
2018-05-11T04:06:00.553Z,38.50
2018-05-11T04:07:00.564Z,39.30
2018-05-11T04:08:00.561Z,40.20
2018-05-11T04:09:00.538Z,38.10
2018-05-11T04:10:00.542Z,41.00
2018-05-11T04:11:00.548Z,39.40
2018-05-11T04:12:00.559Z,39.30
2018-05-11T04:13:00.546Z,38.80
2018-05-11T04:14:00.582Z,39.40
2018-05-11T04:15:00.554Z,39.20
2018-05-11T04:16:00.548Z,37.60
2018-05-11T04:17:00.569Z,39.70
2018-05-11T04:18:00.585Z,38.00
2018-05-11T04:19:00.561Z,36.90
2018-05-11T04:20:00.559Z,37.50
2018-05-11T04:21:00.562Z,38.20
2018-05-11T04:22:00.562Z,38.80
2018-05-11T04:23:00.579Z,36.80
2018-05-11T04:24:00.568Z,37.20
2018-05-11T04:25:00.562Z,35.80
2018-05-11T04:26:00.586Z,37.00
2018-05-11T04:27:00.575Z,36.70
2018-05-11T04:28:00.577Z,35.40
2018-05-11T04:29:00.571Z,36.10
2018-05-11T04:30:00.602Z,36.70
2018-05-11T04:31:00.584Z,36.80
2018-05-11T04:32:00.601Z,35.20
2018-05-11T04:33:00.575Z,36.30
2018-05-11T04:34:00.600Z,37.10
2018-05-11T04:35:00.615Z,37.30
2018-05-11T04:36:00.585Z,36.70
2018-05-11T04:37:00.622Z,36.10
2018-05-11T04:38:00.603Z,34.80
2018-05-11T04:39:00.596Z,34.10
2018-05-11T04:40:00.587Z,34.80
2018-05-11T04:41:00.590Z,36.70
2018-05-11T04:42:00.605Z,33.50
2018-05-11T04:43:00.587Z,33.50
2018-05-11T04:44:00.623Z,34.90
2018-05-11T04:45:00.599Z,35.20
2018-05-11T04:46:01.110Z,34.30
2018-05-11T04:47:00.617Z,34.70
2018-05-11T04:48:00.618Z,36.10
2018-05-11T04:49:00.628Z,34.40
2018-05-11T04:50:00.660Z,36.00
2018-05-11T04:51:00.621Z,37.20
2018-05-11T04:52:00.605Z,35.90
2018-05-11T04:53:00.644Z,36.50
2018-05-11T04:54:00.612Z,35.70
2018-05-11T04:55:00.622Z,35.10
2018-05-11T04:56:00.619Z,36.00
2018-05-11T04:57:00.631Z,35.20
2018-05-11T04:58:00.625Z,37.90
2018-05-11T04:59:00.625Z,34.80
2018-05-11T05:00:00.628Z,34.90
2018-05-11T05:01:00.628Z,33.50
2018-05-11T05:02:00.634Z,32.90
2018-05-11T05:03:00.633Z,32.00
2018-05-11T05:04:00.652Z,31.80
2018-05-11T05:05:00.648Z,35.70
2018-05-11T05:06:00.632Z,33.60
2018-05-11T05:07:00.682Z,32.90
2018-05-11T05:08:00.646Z,32.30
2018-05-11T05:09:00.653Z,32.20
2018-05-11T05:10:00.672Z,31.60
2018-05-11T05:11:00.648Z,32.50
2018-05-11T05:12:00.693Z,33.10
2018-05-11T05:13:00.646Z,32.80
2018-05-11T05:14:00.660Z,31.20
2018-05-11T05:15:00.664Z,31.10
2018-05-11T05:16:00.659Z,31.60
2018-05-11T05:17:00.654Z,33.80
2018-05-11T05:18:00.649Z,32.50
2018-05-11T05:19:00.657Z,32.40
2018-05-11T05:20:00.675Z,31.20
2018-05-11T05:21:00.677Z,31.60
2018-05-11T05:22:00.710Z,32.80
2018-05-11T05:23:00.684Z,33.20
2018-05-11T05:24:00.669Z,33.30
2018-05-11T05:25:00.680Z,35.70
2018-05-11T05:26:00.686Z,37.50
2018-05-11T05:27:00.673Z,33.30
2018-05-11T05:28:00.716Z,32.80
2018-05-11T05:29:00.692Z,35.00
2018-05-11T05:30:00.703Z,34.70
2018-05-11T05:31:00.720Z,37.20
2018-05-11T05:32:00.701Z,36.50
2018-05-11T05:33:00.763Z,36.60
2018-05-11T05:34:00.686Z,36.80
2018-05-11T05:35:00.698Z,35.20
2018-05-11T05:36:00.688Z,33.80
2018-05-11T05:37:00.689Z,37.40
2018-05-11T05:38:00.695Z,34.70
2018-05-11T05:39:00.714Z,35.20
2018-05-11T05:40:00.715Z,33.90
2018-05-11T05:41:00.724Z,34.10
2018-05-11T05:42:00.702Z,33.30
2018-05-11T05:43:00.732Z,33.50
2018-05-11T05:44:00.707Z,33.90
2018-05-11T05:45:00.705Z,35.20
2018-05-11T05:46:00.739Z,34.10
2018-05-11T05:47:00.731Z,35.10
2018-05-11T05:48:00.722Z,35.00
2018-05-11T05:49:00.744Z,34.70
2018-05-11T05:50:00.750Z,34.00
2018-05-11T05:51:00.756Z,33.30
2018-05-11T05:52:00.849Z,33.80
2018-05-11T05:53:00.725Z,32.30
2018-05-11T05:54:00.748Z,34.70
2018-05-11T05:55:00.771Z,34.70
2018-05-11T05:56:00.743Z,35.70
2018-05-11T05:57:00.737Z,37.50
2018-05-11T05:58:00.745Z,34.40
2018-05-11T05:59:00.780Z,34.30
2018-05-11T06:00:00.758Z,36.70
2018-05-11T06:01:00.759Z,36.90
2018-05-11T06:02:00.755Z,36.30
2018-05-11T06:03:00.746Z,36.90
2018-05-11T06:04:00.741Z,35.00
2018-05-11T06:05:00.743Z,36.30
2018-05-11T06:06:00.762Z,35.40
2018-05-11T06:07:00.752Z,35.10
2018-05-11T06:08:00.752Z,36.30
2018-05-11T06:09:00.799Z,37.40
2018-05-11T06:10:00.789Z,37.40
2018-05-11T06:11:00.880Z,35.10
2018-05-11T06:12:00.798Z,34.40
2018-05-11T06:13:00.778Z,35.90
2018-05-11T06:14:00.796Z,36.40
2018-05-11T06:15:00.778Z,36.00
2018-05-11T06:16:00.778Z,35.10
2018-05-11T06:17:00.778Z,38.00
2018-05-11T06:18:00.803Z,38.70
2018-05-11T06:19:00.779Z,35.20
2018-05-11T06:20:00.802Z,35.50
2018-05-11T06:21:00.777Z,35.50
2018-05-11T06:22:00.862Z,33.70
2018-05-11T06:23:00.788Z,31.20
2018-05-11T06:24:00.944Z,30.30
2018-05-11T06:25:00.798Z,30.80
2018-05-11T06:26:00.816Z,30.20
2018-05-11T06:27:00.798Z,32.40
2018-05-11T06:28:00.807Z,32.90
2018-05-11T06:29:00.829Z,31.50
2018-05-11T06:30:00.810Z,32.30
2018-05-11T06:31:00.806Z,32.10
2018-05-11T06:32:00.802Z,32.00
2018-05-11T06:33:00.807Z,32.10
2018-05-11T06:34:00.817Z,32.50
2018-05-11T06:35:00.847Z,33.60
2018-05-11T06:36:00.849Z,33.80
2018-05-11T06:37:00.945Z,32.80
2018-05-11T06:38:00.813Z,32.00
2018-05-11T06:39:00.858Z,32.70
2018-05-11T06:40:00.860Z,34.20
2018-05-11T06:41:00.843Z,34.70
2018-05-11T06:42:00.883Z,33.60
2018-05-11T06:43:00.832Z,33.90
2018-05-11T06:44:00.853Z,34.30
2018-05-11T06:45:00.849Z,34.80
2018-05-11T06:46:00.881Z,34.30
2018-05-11T06:47:00.885Z,35.00
2018-05-11T06:48:00.888Z,36.80
2018-05-11T06:49:00.873Z,35.80
2018-05-11T06:50:00.922Z,34.60
2018-05-11T06:51:00.852Z,32.20
2018-05-11T06:52:00.878Z,32.80
2018-05-11T06:53:00.861Z,34.20
2018-05-11T06:54:00.855Z,32.90
2018-05-11T06:55:00.874Z,31.30
2018-05-11T06:56:00.870Z,33.10
2018-05-11T06:57:00.868Z,32.80
2018-05-11T06:58:00.862Z,31.40
2018-05-11T06:59:00.862Z,32.40
2018-05-11T07:00:00.861Z,33.50
2018-05-11T07:01:00.885Z,33.80
2018-05-11T07:02:00.905Z,33.10
2018-05-11T07:03:00.868Z,33.40
2018-05-11T07:04:00.872Z,34.00
2018-05-11T07:05:00.878Z,34.20
2018-05-11T07:06:00.925Z,34.30
2018-05-11T07:07:00.887Z,33.50
2018-05-11T07:08:01.058Z,33.80
2018-05-11T07:09:00.895Z,34.00
2018-05-11T07:10:00.895Z,32.40
2018-05-11T07:11:00.889Z,34.00
2018-05-11T07:12:00.895Z,33.10
2018-05-11T07:13:00.940Z,34.00
2018-05-11T07:14:00.909Z,33.10
2018-05-11T07:15:00.908Z,32.40
2018-05-11T07:16:00.931Z,33.70
2018-05-11T07:17:00.947Z,31.20
2018-05-11T07:18:00.904Z,32.90
2018-05-11T07:19:00.905Z,32.30
2018-05-11T07:20:00.944Z,32.10
2018-05-11T07:21:01.653Z,33.50
2018-05-11T07:22:00.926Z,32.70
2018-05-11T07:23:00.919Z,34.00
2018-05-11T07:24:00.930Z,32.50
2018-05-11T07:25:00.947Z,31.30
2018-05-11T07:26:00.966Z,32.60
2018-05-11T07:27:00.940Z,31.70
2018-05-11T07:28:00.959Z,31.50
2018-05-11T07:29:00.953Z,32.50
2018-05-11T07:30:00.955Z,33.40
2018-05-11T07:31:00.965Z,33.00
2018-05-11T07:32:00.937Z,33.20
2018-05-11T07:33:00.942Z,32.00
2018-05-11T07:34:00.997Z,32.90
2018-05-11T07:35:00.996Z,33.40
2018-05-11T07:36:00.953Z,35.30
2018-05-11T07:37:00.979Z,35.20
2018-05-11T07:38:00.973Z,33.30
2018-05-11T07:39:00.954Z,34.00
2018-05-11T07:40:01.017Z,29.90
2018-05-11T07:41:01.036Z,30.20
2018-05-11T07:42:00.969Z,32.20
2018-05-11T07:43:02.112Z,30.50
2018-05-11T07:44:00.996Z,29.70
2018-05-11T07:45:00.976Z,30.30
2018-05-11T07:46:01.032Z,28.90
2018-05-11T07:47:01.044Z,29.20
2018-05-11T07:48:00.991Z,29.80
2018-05-11T07:49:01.661Z,28.20
2018-05-11T07:50:01.006Z,30.30
2018-05-11T07:51:01.157Z,30.90
2018-05-11T07:52:01.005Z,29.00
2018-05-11T07:53:01.015Z,28.90
2018-05-11T07:54:01.021Z,28.90
2018-05-11T07:55:01.027Z,29.80
2018-05-11T07:56:00.994Z,27.90
2018-05-11T07:57:01.056Z,31.10
2018-05-11T07:58:01.005Z,30.10
2018-05-11T07:59:01.020Z,29.80
2018-05-11T08:00:01.077Z,28.70
2018-05-11T08:01:01.060Z,28.80
2018-05-11T08:02:01.075Z,29.30
2018-05-11T08:03:01.049Z,29.40
2018-05-11T08:04:01.099Z,29.40
2018-05-11T08:05:01.036Z,29.70
2018-05-11T08:06:01.675Z,27.20
2018-05-11T08:07:01.077Z,26.40
2018-05-11T08:08:01.048Z,26.90
2018-05-11T08:09:01.047Z,27.00
2018-05-11T08:10:01.667Z,26.00
2018-05-11T08:11:01.105Z,25.40
2018-05-11T08:12:01.143Z,24.60
2018-05-11T08:13:01.063Z,25.50
2018-05-11T08:14:01.070Z,25.30
2018-05-11T08:15:01.171Z,24.70
2018-05-11T08:16:01.095Z,23.30
2018-05-11T08:17:01.105Z,23.30
2018-05-11T08:18:01.069Z,22.90
2018-05-11T08:19:02.417Z,21.40
2018-05-11T08:20:01.207Z,22.50
2018-05-11T08:21:01.139Z,21.80
2018-05-11T08:22:03.918Z,21.90
2018-05-11T08:23:01.096Z,22.30
2018-05-11T08:24:01.162Z,23.60
2018-05-11T08:25:01.151Z,22.50
2018-05-11T08:26:01.164Z,20.80
2018-05-11T08:27:01.170Z,20.80
2018-05-11T08:28:01.138Z,21.10
2018-05-11T08:29:01.117Z,21.40
2018-05-11T08:30:01.123Z,19.80
2018-05-11T08:31:01.172Z,20.60
2018-05-11T08:32:01.155Z,19.60
2018-05-11T08:33:01.142Z,20.10
2018-05-11T08:34:01.176Z,19.70
2018-05-11T08:35:01.247Z,20.60
2018-05-11T08:36:01.197Z,18.50
2018-05-11T08:37:01.186Z,20.50
2018-05-11T08:38:01.199Z,19.70
2018-05-11T08:39:01.201Z,19.00
2018-05-11T08:40:01.307Z,18.80
2018-05-11T08:41:01.274Z,18.70
2018-05-11T08:42:01.372Z,18.10
2018-05-11T08:43:01.327Z,18.10
2018-05-11T08:44:01.306Z,19.40
2018-05-11T08:45:01.321Z,19.60
2018-05-11T08:46:01.302Z,20.60
2018-05-11T08:47:01.367Z,20.80
2018-05-11T08:48:01.326Z,20.70
2018-05-11T08:49:01.368Z,21.30
2018-05-11T08:50:02.200Z,21.10
2018-05-11T08:51:01.365Z,20.50
2018-05-11T08:52:02.607Z,19.40
2018-05-11T08:53:01.467Z,19.00
2018-05-11T08:54:02.194Z,19.70
2018-05-11T08:55:01.501Z,19.10
2018-05-11T08:56:01.442Z,18.10
2018-05-11T08:57:01.855Z,18.00
2018-05-11T08:58:01.433Z,18.40
2018-05-11T08:59:01.444Z,17.40
2018-05-11T09:00:01.431Z,18.80
2018-05-11T09:01:01.560Z,17.90
2018-05-11T09:02:01.430Z,17.30
2018-05-11T09:03:01.505Z,16.00
2018-05-11T09:04:01.497Z,16.90
2018-05-11T09:05:01.613Z,17.70
2018-05-11T09:06:01.468Z,17.10
2018-05-11T09:07:01.505Z,16.70
2018-05-11T09:08:01.497Z,16.80
2018-05-11T09:09:01.519Z,17.20
2018-05-11T09:10:01.606Z,18.00
2018-05-11T09:11:01.582Z,17.80
2018-05-11T09:12:01.562Z,17.70
2018-05-11T09:13:01.623Z,17.10
2018-05-11T09:14:01.597Z,17.80
2018-05-11T09:15:01.585Z,17.40
2018-05-11T09:16:01.668Z,16.70
2018-05-11T09:17:01.692Z,16.10
2018-05-11T09:18:01.666Z,17.00
2018-05-11T09:19:01.674Z,16.70
2018-05-11T09:20:01.664Z,15.80
2018-05-11T09:21:01.687Z,16.60
2018-05-11T09:22:01.784Z,15.70
2018-05-11T09:23:01.788Z,15.70
2018-05-11T09:24:01.720Z,16.00
2018-05-11T09:25:01.767Z,17.10
2018-05-11T09:26:01.814Z,17.10
2018-05-11T09:27:01.885Z,18.50
2018-05-11T09:28:01.830Z,18.60
2018-05-11T09:29:01.774Z,18.90
2018-05-11T09:30:01.822Z,18.40
2018-05-11T09:31:01.880Z,17.40
2018-05-11T09:32:01.908Z,17.70
2018-05-11T09:33:01.838Z,17.60
2018-05-11T09:34:01.905Z,18.80
2018-05-11T09:35:01.921Z,19.60
2018-05-11T09:36:01.838Z,19.50
2018-05-11T09:37:02.097Z,18.80
2018-05-11T09:38:01.926Z,19.70
2018-05-11T09:39:02.796Z,18.30
2018-05-11T09:40:01.913Z,19.30
2018-05-11T09:41:01.903Z,18.90
2018-05-11T09:42:01.980Z,17.60
2018-05-11T09:43:01.908Z,14.50
2018-05-11T09:44:01.978Z,15.90
2018-05-11T09:45:02.001Z,17.20
2018-05-11T09:46:01.941Z,16.40
2018-05-11T09:47:01.934Z,16.90
2018-05-11T09:48:02.727Z,17.20
2018-05-11T09:49:02.155Z,15.60
2018-05-11T09:50:02.236Z,15.00
2018-05-11T09:51:02.103Z,16.50
2018-05-11T09:52:02.241Z,16.80
2018-05-11T09:53:02.165Z,19.10
2018-05-11T09:54:02.052Z,18.70
2018-05-11T09:55:02.176Z,20.30
2018-05-11T09:56:02.068Z,20.40
2018-05-11T09:57:02.035Z,17.90
2018-05-11T09:58:02.731Z,18.20
2018-05-11T09:59:02.052Z,17.90
2018-05-11T10:00:02.175Z,18.10
2018-05-11T10:01:02.114Z,16.20
2018-05-11T10:02:02.110Z,16.00
2018-05-11T10:03:02.142Z,14.50
2018-05-11T10:04:02.081Z,14.20
2018-05-11T10:05:02.092Z,11.10
2018-05-11T10:06:02.102Z,9.90
2018-05-11T10:07:02.144Z,12.10
2018-05-11T10:08:02.129Z,12.60
2018-05-11T10:09:02.153Z,13.70
2018-05-11T10:10:02.167Z,15.20
2018-05-11T10:11:02.288Z,14.90
2018-05-11T10:12:02.166Z,15.60
2018-05-11T10:13:02.212Z,15.20
2018-05-11T10:14:02.215Z,14.90
2018-05-11T10:15:02.257Z,14.10
2018-05-11T10:16:02.274Z,14.70
2018-05-11T10:17:02.265Z,13.80
2018-05-11T10:18:02.250Z,14.80
2018-05-11T10:19:02.252Z,14.70
2018-05-11T10:20:02.296Z,14.00
2018-05-11T10:21:02.314Z,15.30
2018-05-11T10:22:02.331Z,14.10
2018-05-11T10:23:02.348Z,14.90
2018-05-11T10:24:02.340Z,15.20
2018-05-11T10:25:02.338Z,14.30
2018-05-11T10:26:02.379Z,14.60
2018-05-11T10:27:02.359Z,14.40
2018-05-11T10:28:02.436Z,14.90
2018-05-11T10:29:02.483Z,14.20
2018-05-11T10:30:02.481Z,14.60
2018-05-11T10:31:02.461Z,15.00
2018-05-11T10:32:02.445Z,14.40
2018-05-11T10:33:02.942Z,15.30
2018-05-11T10:34:02.468Z,15.70
2018-05-11T10:35:02.462Z,15.70
2018-05-11T10:36:02.501Z,15.20
2018-05-11T10:37:02.513Z,15.90
2018-05-11T10:38:02.550Z,16.20
2018-05-11T10:39:02.530Z,15.60
2018-05-11T10:40:02.546Z,15.40
2018-05-11T10:41:02.547Z,15.70
2018-05-11T10:42:02.557Z,15.70
2018-05-11T10:43:02.657Z,15.20
2018-05-11T10:44:02.588Z,15.20
2018-05-11T10:45:02.584Z,15.10
2018-05-11T10:46:02.618Z,16.10
2018-05-11T10:47:03.334Z,16.10
2018-05-11T10:48:02.641Z,16.50
2018-05-11T10:49:02.631Z,15.50
2018-05-11T10:50:02.647Z,16.00
2018-05-11T10:51:02.693Z,17.10
2018-05-11T10:52:02.656Z,17.60
2018-05-11T10:53:02.703Z,17.70
2018-05-11T10:54:02.719Z,17.80
2018-05-11T10:55:02.714Z,18.00
2018-05-11T10:56:02.737Z,17.60
2018-05-11T10:57:02.745Z,16.80
2018-05-11T10:58:02.740Z,17.80
2018-05-11T10:59:02.729Z,17.60
2018-05-11T11:00:04.766Z,18.50
2018-05-11T11:01:02.736Z,18.10
2018-05-11T11:02:02.760Z,17.20
2018-05-11T11:03:02.788Z,17.40
2018-05-11T11:04:02.775Z,18.30
2018-05-11T11:05:02.759Z,17.40
2018-05-11T11:06:02.827Z,17.50
2018-05-11T11:07:02.796Z,17.30
2018-05-11T11:08:02.866Z,17.20
2018-05-11T11:09:02.841Z,27.20
2018-05-11T11:10:02.794Z,16.90
2018-05-11T11:11:02.800Z,17.30
2018-05-11T11:12:02.837Z,18.20
2018-05-11T11:13:02.814Z,17.60
2018-05-11T11:14:02.847Z,16.60
2018-05-11T11:15:02.844Z,15.40
2018-05-11T11:16:02.845Z,14.60
2018-05-11T11:17:02.856Z,15.70
2018-05-11T11:18:02.856Z,16.50
2018-05-11T11:19:02.875Z,15.70
2018-05-11T11:20:02.956Z,15.60
2018-05-11T11:21:02.887Z,16.10
2018-05-11T11:22:02.899Z,16.50
2018-05-11T11:23:02.913Z,15.70
2018-05-11T11:24:02.950Z,17.30
2018-05-11T11:25:02.940Z,16.10
2018-05-11T11:26:02.954Z,17.80
2018-05-11T11:27:02.911Z,16.10
2018-05-11T11:28:02.951Z,17.60
2018-05-11T11:29:02.915Z,16.20
2018-05-11T11:30:02.954Z,16.40
2018-05-11T11:31:02.937Z,15.90
2018-05-11T11:32:02.950Z,16.10
2018-05-11T11:33:02.939Z,17.70
2018-05-11T11:34:02.991Z,16.30
2018-05-11T11:35:02.954Z,16.60
2018-05-11T11:36:02.957Z,16.10
2018-05-11T11:37:02.973Z,16.40
2018-05-11T11:38:03.075Z,15.60
2018-05-11T11:39:02.975Z,14.80
2018-05-11T11:40:03.028Z,16.20
2018-05-11T11:41:02.982Z,17.00
2018-05-11T11:42:03.063Z,18.10
2018-05-11T11:43:02.991Z,18.20
2018-05-11T11:44:03.024Z,17.50
2018-05-11T11:45:03.038Z,17.60
2018-05-11T11:46:03.003Z,17.80
2018-05-11T11:47:03.097Z,16.40
2018-05-11T11:48:03.876Z,16.40
2018-05-11T11:49:03.023Z,15.80
2018-05-11T11:50:03.058Z,16.30
2018-05-11T11:51:03.061Z,15.90
2018-05-11T11:52:03.042Z,16.80
2018-05-11T11:53:03.073Z,16.20
2018-05-11T11:54:03.048Z,16.60
2018-05-11T11:55:03.050Z,17.20
2018-05-11T11:56:03.797Z,17.20
2018-05-11T11:57:03.068Z,18.00
2018-05-11T11:58:03.093Z,16.40
2018-05-11T11:59:03.065Z,17.40
2018-05-11T12:00:03.080Z,16.20
2018-05-11T12:01:03.797Z,15.50
2018-05-11T12:02:03.273Z,16.20
2018-05-11T12:03:03.131Z,16.40
2018-05-11T12:04:03.105Z,15.90
2018-05-11T12:05:03.193Z,16.20
2018-05-11T12:06:03.114Z,15.10
2018-05-11T12:07:03.121Z,15.20
2018-05-11T12:08:03.135Z,15.10
2018-05-11T12:09:03.262Z,15.90
2018-05-11T12:10:03.191Z,17.90
2018-05-11T12:11:03.208Z,17.50
2018-05-11T12:12:03.195Z,17.50
2018-05-11T12:13:03.131Z,17.20
2018-05-11T12:14:03.178Z,17.20
2018-05-11T12:15:03.145Z,17.90
2018-05-11T12:16:03.169Z,18.90
2018-05-11T12:17:03.185Z,19.30
2018-05-11T12:18:03.187Z,19.90
2018-05-11T12:19:03.155Z,19.40
2018-05-11T12:20:03.175Z,19.30
2018-05-11T12:21:03.306Z,18.60
2018-05-11T12:22:03.228Z,19.30
2018-05-11T12:23:03.203Z,19.80
2018-05-11T12:24:03.217Z,22.10
2018-05-11T12:25:03.204Z,20.30
2018-05-11T12:26:03.230Z,20.80
2018-05-11T12:27:03.195Z,19.50
2018-05-11T12:28:03.219Z,20.70
2018-05-11T12:29:03.220Z,21.40
2018-05-11T12:30:03.213Z,23.00
2018-05-11T12:31:03.232Z,23.00
2018-05-11T12:32:03.236Z,21.30
2018-05-11T12:33:03.337Z,21.00
2018-05-11T12:34:03.230Z,21.30
2018-05-11T12:35:03.246Z,20.70
2018-05-11T12:36:03.487Z,20.80
2018-05-11T12:37:03.225Z,21.10
2018-05-11T12:38:03.236Z,23.20
2018-05-11T12:39:04.325Z,23.60
2018-05-11T12:40:03.306Z,22.10
2018-05-11T12:41:03.338Z,22.20
2018-05-11T12:42:03.264Z,22.30
2018-05-11T12:43:05.895Z,22.30
2018-05-11T12:44:03.280Z,22.10
2018-05-11T12:45:03.276Z,21.90
2018-05-11T12:46:03.296Z,21.50
2018-05-11T12:47:03.277Z,21.90
2018-05-11T12:48:03.290Z,21.90
2018-05-11T12:49:03.287Z,21.20
2018-05-11T12:50:03.281Z,21.40
2018-05-11T12:51:03.290Z,21.20
2018-05-11T12:52:03.373Z,21.70